Terminal Aerodrome Forecast
Issued by NWS

Home | Current Version | Previous Version | Text Only | Print | Product List | Glossary On
Versions: 1 2 3 4 5 6 7 8 9 10 11 12 13
000
FTUS45 KGJT 161120
TAFDRO
TAF
KDRO 161120Z 1612/1712 22005KT 6SM -SN BR VCSH SCT015 OVC029
     FM161300 25006KT P6SM VCSH OVC020
     FM162000 23006KT P6SM VCSH OVC030
     FM162200 21006KT 3SM BR VCSH OVC003
     FM170000 VRB03KT 3SM BR OVC010
     FM170600 14002KT 3SM BR OVC020=

USA.gov is the U.S. government's official web portal to all federal, state and local government web resources and services.